createdAt,value
2023-03-31T00:02:14.463Z,1.40
2023-03-31T00:04:46.202Z,1.30
2023-03-31T00:07:16.698Z,1.63
2023-03-31T00:09:46.707Z,1.40
2023-03-31T00:12:14.380Z,1.50
2023-03-31T00:14:41.586Z,1.20
2023-03-31T00:17:09.550Z,1.20
2023-03-31T00:19:37.325Z,1.13
2023-03-31T00:22:05.434Z,1.20
2023-03-31T00:24:33.230Z,1.30
2023-03-31T00:27:04.452Z,1.60
2023-03-31T00:29:33.622Z,1.20
2023-03-31T00:32:00.828Z,1.47
2023-03-31T00:34:28.488Z,1.50
2023-03-31T00:36:57.842Z,1.27
2023-03-31T00:39:24.981Z,1.50
2023-03-31T00:41:52.426Z,1.37
2023-03-31T00:44:27.322Z,1.43
2023-03-31T00:46:57.277Z,1.50
2023-03-31T00:49:34.859Z,1.40
2023-03-31T00:52:07.134Z,1.50
2023-03-31T00:54:35.741Z,1.40
2023-03-31T00:57:06.710Z,1.60
2023-03-31T00:59:36.740Z,1.40
2023-03-31T01:02:04.667Z,1.30
2023-03-31T01:04:33.341Z,1.50
2023-03-31T01:07:17.018Z,1.20
2023-03-31T01:09:47.352Z,1.40
2023-03-31T01:12:16.082Z,1.37
2023-03-31T01:14:43.205Z,1.20
2023-03-31T01:17:10.650Z,2.00
2023-03-31T01:19:38.065Z,1.27
2023-03-31T01:22:14.247Z,1.40
2023-03-31T01:25:20.074Z,1.43
2023-03-31T01:28:02.124Z,1.50
2023-03-31T01:30:58.491Z,1.87
2023-03-31T01:33:28.426Z,1.50
2023-03-31T01:36:04.097Z,1.40
2023-03-31T01:38:34.416Z,1.77
2023-03-31T01:41:40.435Z,1.50
2023-03-31T01:44:13.613Z,1.77
2023-03-31T01:46:57.517Z,1.60
2023-03-31T01:49:30.683Z,1.57
2023-03-31T01:51:57.768Z,1.70
2023-03-31T01:54:24.910Z,1.80
2023-03-31T01:57:01.537Z,1.77
2023-03-31T01:59:51.865Z,1.77
2023-03-31T02:02:39.282Z,1.70
2023-03-31T02:05:14.318Z,2.30
2023-03-31T02:07:48.117Z,2.37
2023-03-31T02:10:16.513Z,2.23
2023-03-31T02:12:44.126Z,2.13
2023-03-31T02:15:12.786Z,2.17
2023-03-31T02:17:42.267Z,1.93
2023-03-31T02:20:15.213Z,2.37
2023-03-31T02:22:44.374Z,1.97
2023-03-31T02:25:13.323Z,2.27
2023-03-31T02:27:42.268Z,2.30
2023-03-31T02:30:10.600Z,1.73
2023-03-31T02:32:39.738Z,2.10
2023-03-31T02:35:08.313Z,2.03
2023-03-31T02:37:36.016Z,2.03
2023-03-31T02:40:06.391Z,2.17
2023-03-31T02:42:33.519Z,1.87
2023-03-31T02:45:07.806Z,2.00
2023-03-31T02:47:35.379Z,2.40
2023-03-31T02:50:03.385Z,2.40
2023-03-31T02:52:33.297Z,2.60
2023-03-31T02:55:17.882Z,1.80
2023-03-31T02:57:54.255Z,1.87
2023-03-31T03:00:38.695Z,2.00
2023-03-31T03:03:24.397Z,1.90
2023-03-31T03:05:59.000Z,1.73
2023-03-31T03:08:29.714Z,1.73
2023-03-31T03:10:59.859Z,1.90
2023-03-31T03:13:39.163Z,1.73
2023-03-31T03:16:09.000Z,2.17
2023-03-31T03:18:36.141Z,2.27
2023-03-31T03:21:03.477Z,1.90
2023-03-31T03:23:31.316Z,2.00
2023-03-31T03:25:58.470Z,2.20
2023-03-31T03:28:25.568Z,2.23
2023-03-31T03:30:53.511Z,2.00
2023-03-31T03:33:25.025Z,2.10
2023-03-31T03:35:52.360Z,2.23
2023-03-31T03:38:19.597Z,2.10
2023-03-31T03:40:49.624Z,2.23
2023-03-31T03:43:17.172Z,2.30
2023-03-31T03:45:48.094Z,2.10
2023-03-31T03:48:15.229Z,2.10
2023-03-31T03:50:42.306Z,1.80
2023-03-31T03:53:09.521Z,2.00
2023-03-31T03:55:36.618Z,1.80
2023-03-31T03:58:03.835Z,2.13
2023-03-31T04:00:31.384Z,2.30
2023-03-31T04:02:58.511Z,1.70
2023-03-31T04:05:25.848Z,2.03
2023-03-31T04:07:52.990Z,2.03
2023-03-31T04:10:20.156Z,2.07
2023-03-31T04:12:47.270Z,1.90
2023-03-31T04:15:14.379Z,2.20
2023-03-31T04:17:41.603Z,2.07
2023-03-31T04:20:09.933Z,2.00
2023-03-31T04:22:46.924Z,2.00
2023-03-31T04:25:16.553Z,2.07
2023-03-31T04:27:50.662Z,1.90
2023-03-31T04:30:24.620Z,2.23
2023-03-31T04:32:53.319Z,2.40
2023-03-31T04:35:21.568Z,2.30
2023-03-31T04:37:49.180Z,2.17
2023-03-31T04:40:17.224Z,1.77
2023-03-31T04:42:44.868Z,1.90
2023-03-31T04:45:12.653Z,2.27
2023-03-31T04:47:39.790Z,2.27
2023-03-31T04:50:07.470Z,1.80
2023-03-31T04:52:34.649Z,2.00
2023-03-31T04:55:01.755Z,2.20
2023-03-31T04:57:28.996Z,2.00
2023-03-31T04:59:56.117Z,2.30
2023-03-31T05:02:26.306Z,2.30
2023-03-31T05:04:53.731Z,1.70
2023-03-31T05:07:21.015Z,1.90
2023-03-31T05:09:48.162Z,1.73
2023-03-31T05:12:15.329Z,2.17
2023-03-31T05:14:42.508Z,1.90
2023-03-31T05:17:09.636Z,2.13
2023-03-31T05:19:36.761Z,1.93
2023-03-31T05:22:03.834Z,2.20
2023-03-31T05:24:31.370Z,2.00
2023-03-31T05:26:58.513Z,2.20
2023-03-31T05:29:25.889Z,1.90
2023-03-31T05:31:56.362Z,1.90
2023-03-31T05:34:23.518Z,2.20
2023-03-31T05:36:53.504Z,1.97
2023-03-31T05:39:21.312Z,1.97
2023-03-31T05:41:48.667Z,2.47
2023-03-31T05:44:15.997Z,2.10
2023-03-31T05:46:43.221Z,2.20
2023-03-31T05:49:11.424Z,2.30
2023-03-31T05:51:38.573Z,2.10
2023-03-31T05:54:06.392Z,2.00
2023-03-31T05:56:33.656Z,1.77
2023-03-31T05:59:01.717Z,2.30
2023-03-31T06:01:30.080Z,2.00
2023-03-31T06:03:57.596Z,2.30
2023-03-31T06:06:25.489Z,2.40
2023-03-31T06:08:52.865Z,3.37
2023-03-31T06:11:21.232Z,2.60
2023-03-31T06:13:49.098Z,2.83
2023-03-31T06:16:17.418Z,2.87
2023-03-31T06:18:44.670Z,3.20
2023-03-31T06:21:13.460Z,2.70
2023-03-31T06:23:40.910Z,2.83
2023-03-31T06:26:09.383Z,2.23
2023-03-31T06:28:37.067Z,2.67
2023-03-31T06:31:09.311Z,2.80
2023-03-31T06:33:36.871Z,2.60
2023-03-31T06:36:05.728Z,2.43
2023-03-31T06:38:33.592Z,2.57
2023-03-31T06:41:00.774Z,2.83
2023-03-31T06:43:27.892Z,2.70
2023-03-31T06:45:55.868Z,2.77
2023-03-31T06:48:26.174Z,2.70
2023-03-31T06:50:56.716Z,2.70
2023-03-31T06:53:23.873Z,2.60
2023-03-31T06:55:51.169Z,2.90
2023-03-31T06:58:18.547Z,3.00
2023-03-31T07:00:48.596Z,2.80
2023-03-31T07:03:18.738Z,3.33
2023-03-31T07:05:53.447Z,3.60
2023-03-31T07:08:21.531Z,3.70
2023-03-31T07:10:49.409Z,3.63
2023-03-31T07:13:17.480Z,3.47
2023-03-31T07:15:44.745Z,3.30
2023-03-31T07:18:12.712Z,4.40
2023-03-31T07:20:39.905Z,4.73
2023-03-31T07:23:08.713Z,5.37
2023-03-31T07:25:36.796Z,5.07
2023-03-31T07:28:05.078Z,4.90
2023-03-31T07:30:32.180Z,5.93
2023-03-31T07:32:59.536Z,5.60
2023-03-31T07:35:26.753Z,5.30
2023-03-31T07:37:54.010Z,5.20
2023-03-31T07:40:25.950Z,6.67
2023-03-31T07:42:53.431Z,5.83
2023-03-31T07:45:21.559Z,6.00
2023-03-31T07:47:48.833Z,5.30
2023-03-31T07:50:16.849Z,5.07
2023-03-31T07:52:46.870Z,4.50
2023-03-31T07:55:14.786Z,4.63
2023-03-31T07:57:42.214Z,4.40
2023-03-31T08:00:12.379Z,4.90
2023-03-31T08:02:41.067Z,4.57
2023-03-31T08:05:08.441Z,4.87
2023-03-31T08:07:36.126Z,4.50
2023-03-31T08:10:04.445Z,4.40
2023-03-31T08:12:31.576Z,4.63
2023-03-31T08:14:58.698Z,4.90
2023-03-31T08:17:25.836Z,5.13
2023-03-31T08:19:53.623Z,5.20
2023-03-31T08:22:20.807Z,4.90
2023-03-31T08:24:47.919Z,4.60
2023-03-31T08:27:15.390Z,4.40
2023-03-31T08:29:42.476Z,5.10
2023-03-31T08:32:09.594Z,5.00
2023-03-31T08:34:38.145Z,4.73
2023-03-31T08:37:06.027Z,3.63
2023-03-31T08:39:34.267Z,4.63
2023-03-31T08:42:02.899Z,4.53
2023-03-31T08:44:30.681Z,4.90
2023-03-31T08:46:58.829Z,4.70
2023-03-31T08:49:26.745Z,4.40
2023-03-31T08:51:56.656Z,3.40
2023-03-31T08:54:34.590Z,4.10
2023-03-31T08:57:02.632Z,3.70
2023-03-31T08:59:31.345Z,4.03
2023-03-31T09:02:04.260Z,4.13
2023-03-31T09:04:51.748Z,4.03
2023-03-31T09:07:39.078Z,3.37
2023-03-31T09:10:15.928Z,1.50
2023-03-31T09:12:42.988Z,1.70
2023-03-31T09:15:16.382Z,1.60
2023-03-31T09:17:48.619Z,1.50
2023-03-31T09:20:19.403Z,1.60
2023-03-31T09:22:49.280Z,1.30
2023-03-31T09:25:26.160Z,1.40
2023-03-31T09:27:56.369Z,1.70
2023-03-31T09:30:27.216Z,1.53
2023-03-31T09:32:59.721Z,0.87
2023-03-31T09:35:27.565Z,1.37
2023-03-31T09:37:54.858Z,1.90
2023-03-31T09:40:23.446Z,1.60
2023-03-31T09:43:11.036Z,1.60
2023-03-31T09:45:38.212Z,1.70
2023-03-31T09:48:07.616Z,1.73
2023-03-31T09:50:39.904Z,1.70
2023-03-31T09:53:15.937Z,1.60
2023-03-31T09:55:48.661Z,1.47
2023-03-31T09:58:17.161Z,1.90
2023-03-31T10:00:45.303Z,1.40
2023-03-31T10:03:14.134Z,1.80
2023-03-31T10:05:55.125Z,1.60
2023-03-31T10:08:25.112Z,1.70
2023-03-31T10:10:54.561Z,1.63
2023-03-31T10:13:24.506Z,1.93
2023-03-31T10:15:55.817Z,1.93
2023-03-31T10:18:24.342Z,1.73
2023-03-31T10:20:52.835Z,2.10
2023-03-31T10:23:23.077Z,2.07
2023-03-31T10:25:50.853Z,2.10
2023-03-31T10:28:19.406Z,2.00
2023-03-31T10:30:50.809Z,2.00
2023-03-31T10:33:25.152Z,1.90
2023-03-31T10:35:59.849Z,1.50
2023-03-31T10:38:28.752Z,0.90
2023-03-31T10:40:57.278Z,1.30
2023-03-31T10:43:36.613Z,1.13
2023-03-31T10:46:04.333Z,1.00
2023-03-31T10:48:32.929Z,0.90
2023-03-31T10:51:20.292Z,1.07
2023-03-31T10:53:51.532Z,0.83
2023-03-31T10:56:24.401Z,0.80
2023-03-31T10:59:05.436Z,1.60
2023-03-31T11:01:43.318Z,1.60
2023-03-31T11:04:16.703Z,1.50
2023-03-31T11:07:13.023Z,1.00
2023-03-31T11:09:46.602Z,1.20
2023-03-31T11:12:16.729Z,0.87
2023-03-31T11:15:04.175Z,0.60
2023-03-31T11:17:37.714Z,0.90
2023-03-31T11:20:13.960Z,1.20
2023-03-31T11:22:48.283Z,1.10
2023-03-31T11:25:29.508Z,1.20
2023-03-31T11:27:56.594Z,1.03
2023-03-31T11:30:32.669Z,1.40
2023-03-31T11:33:26.126Z,1.57
2023-03-31T11:36:11.681Z,1.70
2023-03-31T11:38:41.920Z,1.27
2023-03-31T11:41:11.441Z,1.50
2023-03-31T11:43:53.125Z,0.97
2023-03-31T11:46:24.736Z,1.30
2023-03-31T11:48:51.908Z,1.50
2023-03-31T11:51:22.151Z,1.23
2023-03-31T11:53:50.346Z,1.30
2023-03-31T11:56:18.480Z,1.30
2023-03-31T11:58:52.785Z,1.53
2023-03-31T12:01:24.681Z,1.57
2023-03-31T12:03:56.774Z,1.47
2023-03-31T12:06:27.966Z,1.60
2023-03-31T12:09:14.103Z,1.60
2023-03-31T12:11:47.844Z,1.30
2023-03-31T12:14:18.019Z,1.37
2023-03-31T12:17:08.085Z,1.40
2023-03-31T12:19:38.274Z,1.47
2023-03-31T12:22:12.730Z,1.30
2023-03-31T12:24:39.877Z,1.40
2023-03-31T12:27:18.843Z,1.23
2023-03-31T12:29:55.092Z,1.23
2023-03-31T12:32:24.855Z,1.23
2023-03-31T12:35:22.012Z,0.97
2023-03-31T12:38:11.071Z,1.13
2023-03-31T12:41:03.436Z,1.00
2023-03-31T12:43:45.621Z,1.10
2023-03-31T12:46:17.960Z,0.97
2023-03-31T12:49:03.101Z,1.10
2023-03-31T12:51:30.185Z,0.70
2023-03-31T12:54:06.318Z,1.10
2023-03-31T12:56:52.319Z,1.13
2023-03-31T12:59:33.051Z,1.00
2023-03-31T13:02:12.178Z,1.13
2023-03-31T13:04:39.601Z,1.60
2023-03-31T13:07:27.387Z,1.10
2023-03-31T13:09:59.761Z,1.20
2023-03-31T13:12:30.962Z,1.13
2023-03-31T13:15:01.076Z,1.30
2023-03-31T13:17:28.252Z,1.30
2023-03-31T13:19:56.663Z,1.10
2023-03-31T13:22:36.950Z,1.30
2023-03-31T13:25:24.013Z,1.63
2023-03-31T13:27:53.323Z,1.40
2023-03-31T13:30:43.576Z,1.20
2023-03-31T13:33:18.209Z,1.30
2023-03-31T13:35:48.149Z,1.60
2023-03-31T13:38:27.461Z,1.57
2023-03-31T13:41:01.989Z,1.33
2023-03-31T13:43:42.675Z,1.13
2023-03-31T13:46:30.469Z,1.48
2023-03-31T13:49:04.180Z,1.50
2023-03-31T13:51:44.196Z,1.60
2023-03-31T13:54:20.622Z,1.47
2023-03-31T13:57:06.584Z,1.23
2023-03-31T13:59:43.514Z,1.70
2023-03-31T14:02:29.542Z,1.57
2023-03-31T14:05:01.204Z,1.70
2023-03-31T14:07:31.765Z,1.50
2023-03-31T14:09:59.638Z,1.27
2023-03-31T14:12:34.712Z,1.20
2023-03-31T14:15:01.985Z,1.30
2023-03-31T14:17:34.498Z,1.33
2023-03-31T14:20:01.630Z,1.43
2023-03-31T14:22:47.252Z,1.30
2023-03-31T14:25:19.677Z,1.37
2023-03-31T14:28:05.288Z,1.40
2023-03-31T14:30:35.472Z,1.23
2023-03-31T14:33:04.099Z,1.40
2023-03-31T14:35:42.944Z,1.13
2023-03-31T14:38:16.959Z,1.23
2023-03-31T14:40:56.282Z,1.47
2023-03-31T14:43:26.081Z,1.03
2023-03-31T14:45:58.698Z,1.40
2023-03-31T14:48:28.486Z,1.10
2023-03-31T14:50:58.245Z,1.10
2023-03-31T14:53:26.308Z,1.20
2023-03-31T14:55:59.309Z,1.43
2023-03-31T14:58:31.960Z,1.50
2023-03-31T15:00:59.492Z,1.10
2023-03-31T15:03:27.602Z,1.00
2023-03-31T15:05:59.228Z,1.40
2023-03-31T15:08:27.039Z,1.20
2023-03-31T15:11:02.450Z,1.47
2023-03-31T15:13:56.718Z,1.27
2023-03-31T15:16:31.294Z,1.00
2023-03-31T15:18:59.778Z,1.10
2023-03-31T15:21:28.080Z,1.13
2023-03-31T15:23:59.115Z,1.23
2023-03-31T15:26:34.609Z,0.90
2023-03-31T15:29:18.262Z,1.10
2023-03-31T15:31:45.611Z,1.23
2023-03-31T15:34:20.314Z,1.10
2023-03-31T15:36:47.700Z,1.10
2023-03-31T15:39:15.113Z,1.00
2023-03-31T15:41:43.151Z,1.00
2023-03-31T15:44:42.741Z,1.10
2023-03-31T15:47:20.899Z,1.20
2023-03-31T15:50:08.159Z,1.30
2023-03-31T15:52:36.720Z,0.80
2023-03-31T15:55:23.819Z,1.27
2023-03-31T15:57:51.576Z,1.27
2023-03-31T16:00:38.530Z,1.00
2023-03-31T16:03:14.722Z,1.90
2023-03-31T16:08:43.875Z,3.00
2023-03-31T16:11:23.676Z,1.20
2023-03-31T16:13:34.794Z,1.90
2023-03-31T16:13:52.741Z,1.10
2023-03-31T16:16:21.930Z,1.10
2023-03-31T16:18:55.430Z,1.00
2023-03-31T16:21:25.525Z,1.00
2023-03-31T16:23:57.849Z,1.00
2023-03-31T16:26:26.206Z,1.10
2023-03-31T16:28:54.536Z,1.40
2023-03-31T16:31:34.305Z,1.43
2023-03-31T16:34:02.456Z,0.90
2023-03-31T16:36:29.625Z,0.90
2023-03-31T16:38:59.652Z,0.90
2023-03-31T16:41:35.524Z,0.70
2023-03-31T16:44:03.613Z,1.30
2023-03-31T16:46:30.829Z,1.00
2023-03-31T16:48:58.044Z,1.70
2023-03-31T16:51:25.357Z,1.77
2023-03-31T16:53:52.451Z,0.90
2023-03-31T16:56:19.841Z,0.93
2023-03-31T16:58:46.972Z,0.80
2023-03-31T17:01:14.153Z,1.10
2023-03-31T17:03:42.096Z,1.37
2023-03-31T17:06:13.649Z,0.77
2023-03-31T17:08:41.019Z,1.10
2023-03-31T17:11:11.669Z,1.30
2023-03-31T17:13:39.533Z,1.83
2023-03-31T17:18:54.577Z,4.90
2023-03-31T17:21:22.218Z,1.40
2023-03-31T17:23:49.865Z,1.30
2023-03-31T17:26:18.062Z,1.60
2023-03-31T17:28:45.483Z,3.50
2023-03-31T17:31:17.438Z,1.97
2023-03-31T17:33:44.646Z,1.60
2023-03-31T17:36:12.272Z,1.63
2023-03-31T17:38:39.762Z,1.50
2023-03-31T17:41:07.828Z,1.43
2023-03-31T17:43:35.471Z,1.50
2023-03-31T17:46:04.261Z,1.40
2023-03-31T17:48:34.068Z,1.40
2023-03-31T17:51:08.065Z,1.30
2023-03-31T17:53:35.695Z,1.67
2023-03-31T17:56:03.838Z,1.40
2023-03-31T17:58:31.175Z,1.37
2023-03-31T18:01:02.896Z,1.43
2023-03-31T18:03:30.078Z,1.37
2023-03-31T18:05:57.619Z,1.10
2023-03-31T18:08:24.738Z,1.30
2023-03-31T18:10:51.833Z,1.50
2023-03-31T18:13:19.000Z,1.33
2023-03-31T18:15:48.408Z,1.40
2023-03-31T18:18:15.794Z,1.33
2023-03-31T18:20:42.941Z,1.40
2023-03-31T18:23:10.044Z,1.30
2023-03-31T18:25:37.421Z,2.10
2023-03-31T18:28:05.052Z,1.63
2023-03-31T18:30:32.567Z,1.93
2023-03-31T18:33:00.026Z,1.40
2023-03-31T18:35:27.572Z,1.20
2023-03-31T18:37:54.709Z,1.30
2023-03-31T18:40:22.033Z,1.60
2023-03-31T18:42:49.226Z,1.40
2023-03-31T18:45:16.835Z,1.10
2023-03-31T18:47:44.022Z,1.57
2023-03-31T18:50:11.399Z,1.20
2023-03-31T18:52:38.579Z,0.93
2023-03-31T18:55:06.005Z,1.10
2023-03-31T18:57:33.326Z,1.20
2023-03-31T19:00:01.649Z,1.20
2023-03-31T19:02:28.869Z,1.00
2023-03-31T19:04:56.083Z,1.07
2023-03-31T19:07:23.177Z,1.10
2023-03-31T19:09:50.347Z,0.73
2023-03-31T19:12:17.606Z,1.07
2023-03-31T19:14:45.132Z,1.20
2023-03-31T19:17:12.409Z,0.93
2023-03-31T19:19:39.577Z,0.83
2023-03-31T19:22:07.065Z,1.00
2023-03-31T19:24:34.204Z,0.90
2023-03-31T19:27:01.303Z,0.90
2023-03-31T19:29:30.263Z,1.10
2023-03-31T19:31:57.398Z,1.00
2023-03-31T19:34:24.561Z,0.80
2023-03-31T19:36:51.648Z,1.00
2023-03-31T19:39:18.748Z,0.97
2023-03-31T19:41:45.938Z,1.10
2023-03-31T19:44:13.232Z,1.10
2023-03-31T19:46:40.368Z,0.90
2023-03-31T19:49:07.489Z,1.20
2023-03-31T19:51:34.589Z,1.60
2023-03-31T19:54:02.008Z,1.30
2023-03-31T19:56:31.423Z,1.13
2023-03-31T19:58:59.303Z,9.07
2023-03-31T20:01:27.599Z,11.53
2023-03-31T20:03:55.981Z,5.77
2023-03-31T20:06:24.804Z,1.63
2023-03-31T20:08:52.984Z,1.80
2023-03-31T20:11:20.768Z,1.50
2023-03-31T20:13:48.103Z,1.30
2023-03-31T20:16:18.174Z,1.77
2023-03-31T20:18:49.101Z,1.07
2023-03-31T20:21:17.316Z,1.17
2023-03-31T20:23:44.915Z,1.30
2023-03-31T20:26:13.703Z,1.00
2023-03-31T20:28:41.753Z,1.00
2023-03-31T20:31:13.518Z,1.07
2023-03-31T20:33:42.007Z,2.07
2023-03-31T20:36:10.947Z,1.40
2023-03-31T20:38:39.264Z,1.10
2023-03-31T20:41:06.793Z,1.00
2023-03-31T20:43:35.630Z,1.20
2023-03-31T20:46:04.441Z,1.27
2023-03-31T20:48:31.578Z,0.90
2023-03-31T20:50:58.903Z,0.90
2023-03-31T20:53:26.095Z,1.30
2023-03-31T20:55:53.785Z,1.37
2023-03-31T20:58:21.705Z,1.27
2023-03-31T21:00:48.877Z,1.00
2023-03-31T21:03:16.046Z,1.20
2023-03-31T21:05:47.952Z,1.47
2023-03-31T21:08:15.132Z,1.30
2023-03-31T21:10:46.520Z,1.23
2023-03-31T21:13:15.581Z,1.30
2023-03-31T21:15:47.009Z,1.20
2023-03-31T21:18:16.724Z,1.20
2023-03-31T21:20:51.654Z,1.33
2023-03-31T21:23:18.841Z,1.30
2023-03-31T21:25:50.503Z,1.40
2023-03-31T21:28:19.906Z,1.30
2023-03-31T21:30:50.832Z,1.33
2023-03-31T21:33:18.615Z,1.20
2023-03-31T21:35:45.794Z,1.40
2023-03-31T21:38:12.943Z,1.47
2023-03-31T21:40:40.018Z,1.30
2023-03-31T21:43:07.210Z,1.50
2023-03-31T21:45:36.030Z,1.50
2023-03-31T21:48:03.909Z,1.63
2023-03-31T21:50:31.166Z,1.20
2023-03-31T21:52:59.447Z,1.43
2023-03-31T21:55:27.124Z,1.30
2023-03-31T21:57:54.328Z,1.07
2023-03-31T22:00:21.463Z,1.33
2023-03-31T22:02:48.605Z,1.20
2023-03-31T22:05:15.982Z,1.57
2023-03-31T22:07:43.158Z,1.30
2023-03-31T22:10:10.497Z,1.17
2023-03-31T22:12:37.655Z,1.30
2023-03-31T22:15:04.980Z,1.50
2023-03-31T22:17:32.591Z,1.20
2023-03-31T22:19:59.736Z,1.30
2023-03-31T22:22:26.806Z,1.37
2023-03-31T22:24:54.072Z,1.07
2023-03-31T22:27:21.227Z,1.53
2023-03-31T22:29:48.401Z,1.30
2023-03-31T22:32:19.911Z,1.20
2023-03-31T22:34:47.248Z,1.30
2023-03-31T22:37:14.654Z,1.73
2023-03-31T22:39:41.905Z,1.10
2023-03-31T22:42:09.181Z,1.30
2023-03-31T22:44:40.076Z,1.43
2023-03-31T22:47:10.367Z,1.40
2023-03-31T22:49:37.520Z,1.40
2023-03-31T22:52:04.703Z,1.40
2023-03-31T22:54:32.165Z,1.43
2023-03-31T22:56:59.317Z,1.50
2023-03-31T22:59:26.515Z,1.30
2023-03-31T23:01:53.692Z,1.13
2023-03-31T23:04:21.926Z,1.23
2023-03-31T23:06:49.334Z,1.30
2023-03-31T23:09:17.175Z,1.30
2023-03-31T23:11:47.482Z,1.47
2023-03-31T23:14:14.606Z,1.20
2023-03-31T23:16:41.753Z,1.37
2023-03-31T23:19:08.970Z,1.47
2023-03-31T23:21:36.279Z,1.43
2023-03-31T23:24:03.978Z,1.53
2023-03-31T23:26:32.289Z,1.60
2023-03-31T23:28:59.501Z,1.40
2023-03-31T23:31:31.225Z,1.50
2023-03-31T23:33:58.876Z,1.40
2023-03-31T23:36:26.380Z,1.37
2023-03-31T23:38:54.428Z,1.10
2023-03-31T23:41:22.838Z,1.20
2023-03-31T23:43:50.937Z,1.20
2023-03-31T23:46:18.214Z,1.30
2023-03-31T23:48:45.582Z,1.53
2023-03-31T23:51:13.276Z,1.30
2023-03-31T23:53:40.537Z,1.20
2023-03-31T23:56:09.043Z,1.50
2023-03-31T23:58:36.187Z,1.40
